createdAt,value
2018-07-08T00:00:46.263Z,0
2018-07-08T00:01:46.184Z,0
2018-07-08T00:02:46.157Z,0
2018-07-08T00:03:45.903Z,0
2018-07-08T00:04:45.921Z,0
2018-07-08T00:05:46.290Z,0
2018-07-08T00:06:46.165Z,0
2018-07-08T00:07:46.415Z,0
2018-07-08T00:08:46.427Z,0
2018-07-08T00:09:45.917Z,0
2018-07-08T00:10:46.187Z,0
2018-07-08T00:11:45.664Z,0
2018-07-08T00:12:45.907Z,0
2018-07-08T00:13:45.921Z,0
2018-07-08T00:14:46.179Z,0
2018-07-08T00:15:45.988Z,0
2018-07-08T00:16:46.178Z,0
2018-07-08T00:17:45.909Z,0
2018-07-08T00:18:46.449Z,0
2018-07-08T00:19:46.176Z,0
2018-07-08T00:20:45.956Z,0
2018-07-08T00:21:46.246Z,0
2018-07-08T00:22:46.443Z,0
2018-07-08T00:23:46.183Z,0
2018-07-08T00:24:46.436Z,0
2018-07-08T00:25:46.437Z,0
2018-07-08T00:26:46.196Z,0
2018-07-08T00:27:46.194Z,0
2018-07-08T00:28:46.450Z,0
2018-07-08T00:29:46.445Z,0
2018-07-08T00:30:45.975Z,0
2018-07-08T00:31:45.972Z,0
2018-07-08T00:32:46.439Z,0
2018-07-08T00:33:46.466Z,0
2018-07-08T00:34:46.200Z,0
2018-07-08T00:35:46.492Z,0
2018-07-08T00:36:46.208Z,0
2018-07-08T00:37:45.941Z,0
2018-07-08T00:38:46.207Z,0
2018-07-08T00:39:46.557Z,0
2018-07-08T00:40:46.207Z,0
2018-07-08T00:41:46.488Z,0
2018-07-08T00:42:46.199Z,0
2018-07-08T00:43:45.954Z,0
2018-07-08T00:44:46.455Z,0
2018-07-08T00:45:47.163Z,0
2018-07-08T00:46:46.211Z,0
2018-07-08T00:47:46.213Z,0
2018-07-08T00:48:46.216Z,0
2018-07-08T00:49:46.223Z,0
2018-07-08T00:50:46.846Z,0
2018-07-08T00:51:46.211Z,0
2018-07-08T00:52:46.471Z,0
2018-07-08T00:53:46.541Z,0
2018-07-08T00:54:46.499Z,0
2018-07-08T00:55:46.557Z,0
2018-07-08T00:56:46.230Z,0
2018-07-08T00:57:46.514Z,0
2018-07-08T00:58:46.003Z,0
2018-07-08T00:59:46.234Z,0
2018-07-08T01:00:46.552Z,0
2018-07-08T01:01:46.742Z,0
2018-07-08T01:02:45.977Z,0
2018-07-08T01:03:45.999Z,0
2018-07-08T01:04:46.487Z,0
2018-07-08T01:05:46.557Z,0
2018-07-08T01:06:46.247Z,0
2018-07-08T01:07:45.996Z,0
2018-07-08T01:08:46.433Z,0
2018-07-08T01:09:46.492Z,0
2018-07-08T01:10:46.535Z,0
2018-07-08T01:11:46.229Z,0
2018-07-08T01:12:46.492Z,0
2018-07-08T01:13:46.266Z,0
2018-07-08T01:14:46.246Z,0
2018-07-08T01:15:46.757Z,0
2018-07-08T01:16:46.249Z,0
2018-07-08T01:17:46.250Z,0
2018-07-08T01:18:46.509Z,0
2018-07-08T01:19:46.250Z,0
2018-07-08T01:20:46.297Z,0
2018-07-08T01:21:45.997Z,0
2018-07-08T01:22:46.004Z,0
2018-07-08T01:23:46.510Z,0
2018-07-08T01:24:46.255Z,0
2018-07-08T01:25:46.345Z,0
2018-07-08T01:26:46.267Z,0
2018-07-08T01:27:46.276Z,0
2018-07-08T01:28:46.019Z,0
2018-07-08T01:29:45.804Z,0
2018-07-08T01:30:46.543Z,0
2018-07-08T01:31:46.277Z,0
2018-07-08T01:32:46.267Z,0
2018-07-08T01:33:46.023Z,0
2018-07-08T01:34:46.268Z,0
2018-07-08T01:35:46.312Z,0
2018-07-08T01:36:46.516Z,0
2018-07-08T01:37:46.520Z,0
2018-07-08T01:38:46.528Z,0
2018-07-08T01:39:46.291Z,0
2018-07-08T01:40:46.558Z,0
2018-07-08T01:41:46.525Z,0
2018-07-08T01:42:46.543Z,0
2018-07-08T01:43:46.295Z,0
2018-07-08T01:44:46.549Z,0
2018-07-08T01:45:47.575Z,0
2018-07-08T01:46:46.719Z,0
2018-07-08T01:47:46.274Z,0
2018-07-08T01:48:46.296Z,0
2018-07-08T01:49:46.025Z,0
2018-07-08T01:50:46.579Z,0
2018-07-08T01:51:46.322Z,0
2018-07-08T01:52:45.796Z,0
2018-07-08T01:53:46.289Z,0
2018-07-08T01:54:46.037Z,0
2018-07-08T01:55:46.643Z,0
2018-07-08T01:56:46.296Z,0
2018-07-08T01:57:46.287Z,0
2018-07-08T01:58:46.601Z,0
2018-07-08T01:59:46.297Z,0
2018-07-08T02:00:46.357Z,0
2018-07-08T02:01:46.112Z,0
2018-07-08T02:02:46.286Z,0
2018-07-08T02:03:46.054Z,0
2018-07-08T02:04:46.547Z,0
2018-07-08T02:05:46.597Z,0
2018-07-08T02:06:46.044Z,0
2018-07-08T02:07:46.349Z,0
2018-07-08T02:08:46.322Z,0
2018-07-08T02:09:46.552Z,0
2018-07-08T02:10:46.118Z,0
2018-07-08T02:11:46.565Z,0
2018-07-08T02:12:46.043Z,0
2018-07-08T02:13:46.572Z,0
2018-07-08T02:14:46.046Z,0
2018-07-08T02:15:46.561Z,0
2018-07-08T02:16:46.057Z,0
2018-07-08T02:17:46.555Z,0
2018-07-08T02:18:46.567Z,0
2018-07-08T02:19:46.305Z,0
2018-07-08T02:20:46.568Z,0
2018-07-08T02:21:46.316Z,0
2018-07-08T02:22:46.324Z,0
2018-07-08T02:23:45.808Z,0
2018-07-08T02:24:46.306Z,0
2018-07-08T02:25:46.614Z,0
2018-07-08T02:26:46.565Z,0
2018-07-08T02:27:46.323Z,0
2018-07-08T02:28:46.581Z,0
2018-07-08T02:29:46.574Z,0
2018-07-08T02:30:46.143Z,0
2018-07-08T02:31:45.821Z,0
2018-07-08T02:32:46.582Z,0
2018-07-08T02:33:46.347Z,0
2018-07-08T02:34:46.328Z,0
2018-07-08T02:35:46.586Z,0
2018-07-08T02:36:46.588Z,0
2018-07-08T02:37:46.329Z,0
2018-07-08T02:38:46.621Z,0
2018-07-08T02:39:46.351Z,0
2018-07-08T02:40:46.427Z,0
2018-07-08T02:41:46.594Z,0
2018-07-08T02:42:46.611Z,0
2018-07-08T02:43:46.371Z,0
2018-07-08T02:44:46.600Z,0
2018-07-08T02:45:47.346Z,0
2018-07-08T02:46:46.371Z,0
2018-07-08T02:47:46.108Z,0
2018-07-08T02:48:46.360Z,0
2018-07-08T02:49:46.355Z,0
2018-07-08T02:50:46.622Z,0
2018-07-08T02:51:46.091Z,0
2018-07-08T02:52:46.590Z,0
2018-07-08T02:53:46.625Z,4
2018-07-08T02:54:46.356Z,4
2018-07-08T02:55:46.642Z,0
2018-07-08T02:56:46.338Z,0
2018-07-08T02:57:45.833Z,4
2018-07-08T02:58:46.603Z,4
2018-07-08T02:59:46.618Z,0
2018-07-08T03:00:46.407Z,4
2018-07-08T03:01:46.112Z,8
2018-07-08T03:02:46.359Z,4
2018-07-08T03:03:46.136Z,4
2018-07-08T03:04:46.607Z,8
2018-07-08T03:05:46.621Z,8
2018-07-08T03:06:46.686Z,12
2018-07-08T03:07:46.380Z,12
2018-07-08T03:08:46.615Z,16
2018-07-08T03:09:46.109Z,16
2018-07-08T03:10:46.444Z,20
2018-07-08T03:11:46.362Z,24
2018-07-08T03:12:46.369Z,28
2018-07-08T03:13:46.381Z,32
2018-07-08T03:14:46.358Z,32
2018-07-08T03:15:46.671Z,36
2018-07-08T03:16:47.419Z,40
2018-07-08T03:17:46.368Z,44
2018-07-08T03:18:46.625Z,52
2018-07-08T03:19:46.637Z,52
2018-07-08T03:20:46.213Z,60
2018-07-08T03:21:46.643Z,68
2018-07-08T03:22:46.624Z,76
2018-07-08T03:23:46.126Z,84
2018-07-08T03:24:46.123Z,92
2018-07-08T03:25:46.448Z,104
2018-07-08T03:26:47.450Z,112
2018-07-08T03:27:46.626Z,128
2018-07-08T03:28:46.632Z,140
2018-07-08T03:29:46.632Z,152
2018-07-08T03:30:46.706Z,168
2018-07-08T03:31:46.392Z,184
2018-07-08T03:32:46.628Z,204
2018-07-08T03:33:46.158Z,228
2018-07-08T03:34:46.130Z,248
2018-07-08T03:35:46.476Z,276
2018-07-08T03:36:46.383Z,300
2018-07-08T03:37:46.661Z,332
2018-07-08T03:38:46.650Z,364
2018-07-08T03:39:46.396Z,396
2018-07-08T03:40:46.705Z,432
2018-07-08T03:41:46.395Z,468
2018-07-08T03:42:46.399Z,500
2018-07-08T03:43:46.655Z,532
2018-07-08T03:44:46.652Z,568
2018-07-08T03:45:46.426Z,604
2018-07-08T03:46:47.196Z,640
2018-07-08T03:47:46.649Z,684
2018-07-08T03:48:46.162Z,732
2018-07-08T03:49:46.654Z,784
2018-07-08T03:50:46.498Z,808
2018-07-08T03:51:46.450Z,856
2018-07-08T03:52:46.418Z,904
2018-07-08T03:53:46.422Z,960
2018-07-08T03:54:46.167Z,1020
2018-07-08T03:55:46.702Z,1076
2018-07-08T03:56:46.413Z,1132
2018-07-08T03:57:46.420Z,1184
2018-07-08T03:58:46.168Z,1236
2018-07-08T03:59:46.415Z,1292
2018-07-08T04:00:46.746Z,1340
2018-07-08T04:01:46.439Z,1388
2018-07-08T04:02:46.432Z,1476
2018-07-08T04:03:46.443Z,1476
2018-07-08T04:04:46.667Z,1528
2018-07-08T04:05:46.687Z,1580
2018-07-08T04:06:46.426Z,1620
2018-07-08T04:07:46.471Z,1664
2018-07-08T04:08:46.447Z,1708
2018-07-08T04:09:46.442Z,1756
2018-07-08T04:10:46.284Z,1812
2018-07-08T04:11:46.694Z,1864
2018-07-08T04:12:46.185Z,1920
2018-07-08T04:13:46.440Z,1972
2018-07-08T04:14:46.431Z,2024
2018-07-08T04:15:46.281Z,2084
2018-07-08T04:16:47.261Z,2140
2018-07-08T04:17:46.690Z,2292
2018-07-08T04:18:46.698Z,2612
2018-07-08T04:19:46.441Z,2600
2018-07-08T04:20:46.489Z,2684
2018-07-08T04:21:46.190Z,2820
2018-07-08T04:22:46.461Z,2888
2018-07-08T04:23:46.713Z,2968
2018-07-08T04:24:46.742Z,3116
2018-07-08T04:25:46.697Z,3312
2018-07-08T04:26:46.452Z,3592
2018-07-08T04:27:46.451Z,3936
2018-07-08T04:28:46.237Z,4136
2018-07-08T04:29:45.957Z,4184
2018-07-08T04:30:45.950Z,4304
2018-07-08T04:31:45.960Z,4704
2018-07-08T04:32:46.720Z,4780
2018-07-08T04:33:46.212Z,4832
2018-07-08T04:34:46.477Z,4776
2018-07-08T04:35:46.732Z,4908
2018-07-08T04:36:46.470Z,4788
2018-07-08T04:37:46.472Z,4732
2018-07-08T04:38:46.247Z,4780
2018-07-08T04:39:46.251Z,4868
2018-07-08T04:40:46.511Z,4712
2018-07-08T04:41:46.759Z,4908
2018-07-08T04:42:46.258Z,4848
2018-07-08T04:43:46.497Z,4460
2018-07-08T04:44:46.495Z,4460
2018-07-08T04:45:46.303Z,4508
2018-07-08T04:46:46.490Z,4760
2018-07-08T04:47:46.515Z,4912
2018-07-08T04:48:46.513Z,4880
2018-07-08T04:49:46.776Z,4712
2018-07-08T04:50:46.834Z,4448
2018-07-08T04:51:46.782Z,3752
2018-07-08T04:52:46.017Z,3832
2018-07-08T04:53:46.594Z,3944
2018-07-08T04:54:46.791Z,4080
2018-07-08T04:55:46.655Z,4220
2018-07-08T04:56:46.358Z,4328
2018-07-08T04:57:46.376Z,4424
2018-07-08T04:58:46.311Z,4536
2018-07-08T04:59:46.060Z,4604
2018-07-08T05:00:46.354Z,4696
2018-07-08T05:01:46.301Z,4808
2018-07-08T05:02:46.810Z,4916
2018-07-08T05:03:46.828Z,5032
2018-07-08T05:04:46.828Z,5188
2018-07-08T05:05:46.936Z,5344
2018-07-08T05:06:46.578Z,5488
2018-07-08T05:07:46.820Z,5616
2018-07-08T05:08:46.584Z,5740
2018-07-08T05:09:46.090Z,5868
2018-07-08T05:10:46.645Z,6040
2018-07-08T05:11:46.597Z,5872
2018-07-08T05:12:46.604Z,5840
2018-07-08T05:13:46.597Z,5820
2018-07-08T05:14:46.841Z,6052
2018-07-08T05:15:46.847Z,6320
2018-07-08T05:16:46.873Z,6800
2018-07-08T05:17:46.865Z,6376
2018-07-08T05:18:46.867Z,6120
2018-07-08T05:19:46.880Z,6124
2018-07-08T05:20:46.389Z,6192
2018-07-08T05:21:46.107Z,6080
2018-07-08T05:22:46.864Z,6052
2018-07-08T05:23:46.369Z,6092
2018-07-08T05:24:46.633Z,6956
2018-07-08T05:25:46.631Z,6824
2018-07-08T05:26:46.654Z,6652
2018-07-08T05:27:46.884Z,6684
2018-07-08T05:28:46.458Z,6840
2018-07-08T05:29:46.407Z,6816
2018-07-08T05:30:46.214Z,6748
2018-07-08T05:31:46.400Z,6708
2018-07-08T05:32:46.396Z,6740
2018-07-08T05:33:46.652Z,6420
2018-07-08T05:34:46.406Z,6580
2018-07-08T05:35:46.785Z,6688
2018-07-08T05:36:46.820Z,6772
2018-07-08T05:37:46.926Z,6896
2018-07-08T05:38:46.420Z,6808
2018-07-08T05:39:46.681Z,6868
2018-07-08T05:40:46.736Z,6988
2018-07-08T05:41:46.674Z,7036
2018-07-08T05:42:46.934Z,7060
2018-07-08T05:43:46.698Z,7116
2018-07-08T05:44:46.432Z,7108
2018-07-08T05:45:46.700Z,7124
2018-07-08T05:46:46.993Z,7172
2018-07-08T05:47:47.757Z,7240
2018-07-08T05:48:46.462Z,7324
2018-07-08T05:49:46.699Z,7560
2018-07-08T05:50:47.115Z,7664
2018-07-08T05:51:46.980Z,7768
2018-07-08T05:52:46.459Z,7820
2018-07-08T05:53:46.728Z,7896
2018-07-08T05:54:46.721Z,8104
2018-07-08T05:55:46.748Z,8388
2018-07-08T05:56:46.713Z,8536
2018-07-08T05:57:47.004Z,8896
2018-07-08T05:58:47.009Z,9128
2018-07-08T05:59:46.734Z,9492
2018-07-08T06:00:46.781Z,9968
2018-07-08T06:01:47.009Z,10344
2018-07-08T06:02:46.812Z,10900
2018-07-08T06:03:47.026Z,11612
2018-07-08T06:04:47.282Z,12200
2018-07-08T06:05:46.772Z,12684
2018-07-08T06:06:46.771Z,12928
2018-07-08T06:07:46.511Z,12976
2018-07-08T06:08:46.776Z,13132
2018-07-08T06:09:47.026Z,13256
2018-07-08T06:10:46.816Z,13276
2018-07-08T06:11:46.806Z,13456
2018-07-08T06:12:47.037Z,13460
2018-07-08T06:13:47.074Z,13636
2018-07-08T06:14:47.054Z,13644
2018-07-08T06:24:54.834Z,14580
2018-07-08T06:25:55.706Z,14536
2018-07-08T06:26:55.336Z,14460
2018-07-08T06:27:55.594Z,14464
2018-07-08T06:28:55.360Z,14500
2018-07-08T06:29:55.101Z,14340
2018-07-08T06:30:55.126Z,14612
2018-07-08T06:31:55.402Z,14592
2018-07-08T06:32:55.694Z,14540
2018-07-08T06:33:55.130Z,14680
2018-07-08T06:34:55.375Z,14616
2018-07-08T06:35:55.385Z,14708
2018-07-08T06:36:55.637Z,14720
2018-07-08T06:37:55.140Z,14616
2018-07-08T06:38:55.410Z,14716
2018-07-08T06:39:55.449Z,14848
2018-07-08T06:40:55.693Z,14692
2018-07-08T06:41:55.437Z,14852
2018-07-08T06:42:55.428Z,15024
2018-07-08T06:43:55.209Z,14940
2018-07-08T06:44:55.438Z,15004
2018-07-08T06:45:55.196Z,14828
2018-07-08T06:46:55.494Z,15012
2018-07-08T06:47:55.261Z,14988
2018-07-08T06:48:55.472Z,14672
2018-07-08T06:49:55.490Z,14740
2018-07-08T06:50:55.513Z,14888
2018-07-08T06:51:55.333Z,14876
2018-07-08T06:52:55.488Z,14696
2018-07-08T06:53:55.268Z,14832
2018-07-08T06:54:55.779Z,14600
2018-07-08T06:55:55.562Z,14776
2018-07-08T06:56:55.792Z,14852
2018-07-08T06:57:56.086Z,14720
2018-07-08T06:58:55.809Z,14824
2018-07-08T06:59:55.569Z,14828
2018-07-08T07:00:55.566Z,15056
2018-07-08T07:01:55.326Z,15072
2018-07-08T07:02:55.564Z,14860
2018-07-08T07:03:55.582Z,14848
2018-07-08T07:04:55.831Z,14808
2018-07-08T07:05:55.848Z,14664
2018-07-08T07:06:55.772Z,15300
2018-07-08T07:07:55.694Z,15312
2018-07-08T07:08:55.460Z,15336
2018-07-08T07:09:55.876Z,15324
2018-07-08T07:10:55.140Z,15344
2018-07-08T07:11:55.386Z,15328
2018-07-08T07:12:55.400Z,15232
2018-07-08T07:13:55.652Z,15144
2018-07-08T07:14:55.679Z,13308
2018-07-08T07:15:55.437Z,13468
2018-07-08T07:16:55.681Z,13156
2018-07-08T07:17:55.959Z,13096
2018-07-08T07:18:55.704Z,13300
2018-07-08T07:19:55.979Z,13728
2018-07-08T07:20:55.963Z,14144
2018-07-08T07:21:55.984Z,14372
2018-07-08T07:22:55.807Z,14468
2018-07-08T07:23:55.494Z,14532
2018-07-08T07:24:55.499Z,14536
2018-07-08T07:25:55.749Z,14516
2018-07-08T07:26:55.501Z,14536
2018-07-08T07:27:55.522Z,14468
2018-07-08T07:28:55.784Z,14448
2018-07-08T07:29:55.555Z,14432
2018-07-08T07:30:55.791Z,14420
2018-07-08T07:31:56.054Z,14412
2018-07-08T07:32:56.061Z,14356
2018-07-08T07:33:55.814Z,14232
2018-07-08T07:34:56.080Z,14096
2018-07-08T07:35:55.829Z,14168
2018-07-08T07:36:55.591Z,14400
2018-07-08T07:37:56.124Z,14628
2018-07-08T07:38:55.607Z,14700
2018-07-08T07:39:55.619Z,14736
2018-07-08T07:40:55.868Z,14716
2018-07-08T07:41:56.126Z,14724
2018-07-08T07:42:56.147Z,14680
2018-07-08T07:43:55.391Z,14640
2018-07-08T07:44:55.656Z,14620
2018-07-08T07:45:55.976Z,14616
2018-07-08T07:46:56.033Z,14608
2018-07-08T07:47:56.184Z,14600
2018-07-08T07:48:55.941Z,14632
2018-07-08T07:49:56.203Z,14592
2018-07-08T07:50:55.954Z,14536
2018-07-08T07:51:56.220Z,14532
2018-07-08T07:52:55.720Z,14536
2018-07-08T07:53:56.011Z,14520
2018-07-08T07:54:56.266Z,14472
2018-07-08T07:55:56.290Z,14472
2018-07-08T07:56:55.746Z,14440
2018-07-08T07:57:56.254Z,14404
2018-07-08T07:58:56.302Z,14372
2018-07-08T07:59:55.831Z,14328
2018-07-08T08:00:55.824Z,14308
2018-07-08T08:01:55.788Z,14292
2018-07-08T08:02:56.052Z,14256
2018-07-08T08:03:55.811Z,14192
2018-07-08T08:04:56.108Z,14128
2018-07-08T08:05:56.348Z,14088
2018-07-08T08:06:55.824Z,14048
2018-07-08T08:07:56.122Z,13980
2018-07-08T08:08:55.859Z,13956
2018-07-08T08:09:56.138Z,13948
2018-07-08T08:10:56.530Z,13872
2018-07-08T08:11:55.635Z,13780
2018-07-08T08:12:56.192Z,13712
2018-07-08T08:13:56.651Z,13636
2018-07-08T08:14:56.141Z,13576
2018-07-08T08:15:55.928Z,13520
2018-07-08T08:16:56.163Z,13452
2018-07-08T08:17:56.174Z,13388
2018-07-08T08:18:56.193Z,13260
2018-07-08T08:19:56.479Z,13212
2018-07-08T08:20:56.301Z,13164
2018-07-08T08:21:55.695Z,13104
2018-07-08T08:22:56.218Z,13064
2018-07-08T08:23:55.975Z,12968
2018-07-08T08:24:56.238Z,12888
2018-07-08T08:25:56.233Z,12832
2018-07-08T08:26:56.783Z,12792
2018-07-08T08:27:56.627Z,12700
2018-07-08T08:28:56.263Z,12500
2018-07-08T08:29:56.018Z,12468
2018-07-08T08:30:56.566Z,12420
2018-07-08T08:31:56.080Z,12388
2018-07-08T08:32:56.127Z,12324
2018-07-08T08:33:56.565Z,12284
2018-07-08T08:34:56.304Z,12200
2018-07-08T08:35:56.152Z,12224
2018-07-08T08:36:56.384Z,12132
2018-07-08T08:37:56.359Z,12004
2018-07-08T08:38:56.345Z,11972
2018-07-08T08:39:56.609Z,11900
2018-07-08T08:40:56.369Z,11872
2018-07-08T08:41:55.867Z,11796
2018-07-08T08:42:56.371Z,11712
2018-07-08T08:43:56.134Z,11664
2018-07-08T08:44:56.392Z,11604
2018-07-08T08:45:56.545Z,11548
2018-07-08T08:46:56.153Z,11512
2018-07-08T08:47:56.432Z,11436
2018-07-08T08:48:56.193Z,11384
2018-07-08T08:49:56.694Z,11324
2018-07-08T08:50:56.701Z,11256
2018-07-08T08:51:56.208Z,11200
2018-07-08T08:52:56.468Z,11124
2018-07-08T08:53:56.212Z,11068
2018-07-08T08:54:56.213Z,11084
2018-07-08T08:55:56.489Z,10932
2018-07-08T08:56:56.327Z,10900
2018-07-08T08:57:56.326Z,10844
2018-07-08T08:58:56.502Z,10820
2018-07-08T08:59:56.252Z,10776
2018-07-08T09:00:56.593Z,10756
2018-07-08T09:01:56.286Z,10740
2018-07-08T09:02:56.535Z,10696
2018-07-08T09:03:56.744Z,10696
2018-07-08T09:04:56.863Z,10772
2018-07-08T09:05:56.551Z,10668
2018-07-08T09:06:56.075Z,10660
2018-07-08T09:07:56.577Z,10624
2018-07-08T09:08:56.082Z,10568
2018-07-08T09:09:56.365Z,10524
2018-07-08T09:10:56.796Z,10508
2018-07-08T09:11:56.368Z,10480
2018-07-08T09:12:56.366Z,10464
2018-07-08T09:13:56.363Z,10440
2018-07-08T09:14:56.623Z,10460
2018-07-08T09:15:56.148Z,10368
2018-07-08T09:16:56.637Z,10320
2018-07-08T09:17:56.664Z,10256
2018-07-08T09:18:56.937Z,10260
2018-07-08T09:19:56.664Z,10284
2018-07-08T09:20:56.929Z,10256
2018-07-08T09:21:56.926Z,10248
2018-07-08T09:22:56.438Z,10228
2018-07-08T09:23:57.383Z,10248
2018-07-08T09:24:58.336Z,10312
2018-07-08T09:25:56.730Z,10228
2018-07-08T09:26:56.469Z,10220
2018-07-08T09:27:56.713Z,10248
2018-07-08T09:28:56.752Z,10292
2018-07-08T09:29:56.477Z,10316
2018-07-08T09:30:56.721Z,10340
2018-07-08T09:31:56.985Z,10348
2018-07-08T09:32:56.744Z,10356
2018-07-08T09:33:56.783Z,10352
2018-07-08T09:34:56.497Z,10400
2018-07-08T09:35:56.497Z,10356
2018-07-08T09:36:56.776Z,10380
2018-07-08T09:37:56.525Z,10384
2018-07-08T09:38:57.760Z,10372
2018-07-08T09:39:56.547Z,10392
2018-07-08T09:40:56.797Z,10412
2018-07-08T09:41:57.042Z,10432
2018-07-08T09:42:56.560Z,10436
2018-07-08T09:43:57.047Z,10424
2018-07-08T09:44:56.789Z,10452
2018-07-08T09:45:57.158Z,10520
2018-07-08T09:46:57.062Z,10568
2018-07-08T09:47:56.823Z,10440
2018-07-08T09:48:57.080Z,10172
2018-07-08T09:49:56.831Z,10144
2018-07-08T09:50:56.831Z,10132
2018-07-08T09:51:56.581Z,10056
2018-07-08T09:52:56.821Z,9224
2018-07-08T09:53:56.835Z,10244
2018-07-08T09:54:57.173Z,10244
2018-07-08T09:55:56.849Z,10172
2018-07-08T09:56:56.333Z,10160
2018-07-08T09:57:57.275Z,10160
2018-07-08T09:58:57.140Z,10312
2018-07-08T09:59:56.877Z,10232
2018-07-08T10:00:56.890Z,10176
2018-07-08T10:01:57.146Z,10164
2018-07-08T10:02:56.892Z,10144
2018-07-08T10:03:57.145Z,10124
2018-07-08T10:04:57.657Z,10092
2018-07-08T10:05:57.146Z,10016
2018-07-08T10:06:56.899Z,9960
2018-07-08T10:07:56.950Z,9928
2018-07-08T10:08:57.294Z,9908
2018-07-08T10:09:57.006Z,9896
2018-07-08T10:10:57.339Z,9852
2018-07-08T10:11:56.731Z,9700
2018-07-08T10:12:56.686Z,9736
2018-07-08T10:13:57.678Z,9740
2018-07-08T10:14:57.427Z,9736
2018-07-08T10:15:57.224Z,9716
2018-07-08T10:16:57.222Z,9688
2018-07-08T10:17:57.472Z,9712
2018-07-08T10:18:57.398Z,9688
2018-07-08T10:19:58.304Z,9676
2018-07-08T10:20:56.969Z,9728
2018-07-08T10:21:56.743Z,9668
2018-07-08T10:22:57.257Z,9584
2018-07-08T10:54:11.809Z,8080
2018-07-08T10:55:12.083Z,8012
2018-07-08T10:56:12.052Z,7944
2018-07-08T10:57:12.049Z,7928
2018-07-08T10:58:12.056Z,7848
2018-07-08T10:59:12.054Z,7896
2018-07-08T11:00:11.815Z,7892
2018-07-08T11:01:12.056Z,7056
2018-07-08T11:02:12.062Z,4684
2018-07-08T11:03:12.354Z,5420
2018-07-08T11:04:12.111Z,7848
2018-07-08T11:05:12.075Z,7860
2018-07-08T11:06:11.607Z,7856
2018-07-08T11:07:12.336Z,7856
2018-07-08T11:08:12.052Z,7820
2018-07-08T11:09:12.243Z,7824
2018-07-08T11:10:11.856Z,7896
2018-07-08T11:11:11.902Z,7796
2018-07-08T11:12:12.355Z,7840
2018-07-08T11:13:12.124Z,7764
2018-07-08T11:14:12.908Z,7768
2018-07-08T11:15:11.628Z,6624
2018-07-08T11:16:11.892Z,7808
2018-07-08T11:17:11.880Z,7836
2018-07-08T11:18:11.914Z,7940
2018-07-08T11:19:12.173Z,7912
2018-07-08T11:20:12.396Z,7860
2018-07-08T11:21:12.172Z,7748
2018-07-08T11:22:12.391Z,6120
2018-07-08T11:23:12.430Z,5632
2018-07-08T11:24:11.945Z,6944
2018-07-08T11:25:12.410Z,5988
2018-07-08T11:26:12.160Z,8028
2018-07-08T11:27:11.974Z,8216
2018-07-08T11:28:12.168Z,8244
2018-07-08T11:29:11.939Z,8228
2018-07-08T11:30:11.939Z,8220
2018-07-08T11:31:12.203Z,8292
2018-07-08T11:32:11.975Z,8344
2018-07-08T11:33:12.475Z,8340
2018-07-08T11:34:12.204Z,8364
2018-07-08T11:35:12.202Z,8332
2018-07-08T11:36:12.246Z,8264
2018-07-08T11:37:12.251Z,8264
2018-07-08T11:38:11.745Z,8248
2018-07-08T11:39:12.491Z,8200
2018-07-08T11:40:12.496Z,8172
2018-07-08T11:41:12.493Z,8244
2018-07-08T11:42:12.236Z,8156
2018-07-08T11:43:12.095Z,7672
2018-07-08T11:44:11.748Z,8532
2018-07-08T11:45:12.515Z,8540
2018-07-08T11:46:12.091Z,8492
2018-07-08T11:47:12.334Z,8452
2018-07-08T11:48:12.518Z,8368
2018-07-08T11:49:12.314Z,8296
2018-07-08T11:50:12.026Z,8292
2018-07-08T11:51:11.788Z,8340
2018-07-08T11:52:12.545Z,8408
2018-07-08T11:53:12.313Z,8164
2018-07-08T11:54:11.824Z,7940
2018-07-08T11:55:12.092Z,8272
2018-07-08T11:56:12.301Z,8328
2018-07-08T11:57:12.295Z,6248
2018-07-08T11:58:12.056Z,6960
2018-07-08T11:59:11.832Z,8564
2018-07-08T12:00:12.348Z,8692
2018-07-08T12:01:12.355Z,8812
2018-07-08T12:02:12.333Z,8972
2018-07-08T12:03:12.363Z,9088
2018-07-08T12:04:12.339Z,9152
2018-07-08T12:05:12.484Z,9184
2018-07-08T12:06:12.615Z,7528
2018-07-08T12:07:12.692Z,8784
2018-07-08T12:08:12.425Z,8008
2018-07-08T12:09:12.626Z,7080
2018-07-08T12:10:11.892Z,6416
2018-07-08T12:11:12.629Z,6180
2018-07-08T12:12:12.139Z,6236
2018-07-08T12:13:12.405Z,7268
2018-07-08T12:14:12.176Z,6532
2018-07-08T12:15:12.162Z,6592
2018-07-08T12:16:12.073Z,6884
2018-07-08T12:17:12.450Z,8460
2018-07-08T12:18:12.886Z,8852
2018-07-08T12:19:12.540Z,8928
2018-07-08T12:20:12.466Z,9076
2018-07-08T12:21:12.620Z,8992
2018-07-08T12:22:12.484Z,7116
2018-07-08T12:23:12.440Z,9280
2018-07-08T12:24:15.459Z,8724
2018-07-08T12:25:12.507Z,7804
2018-07-08T12:26:12.704Z,9272
2018-07-08T12:27:12.745Z,6988
2018-07-08T12:28:12.464Z,6896
2018-07-08T12:29:12.469Z,7440
2018-07-08T12:30:12.475Z,9332
2018-07-08T12:31:12.488Z,9472
2018-07-08T12:32:12.734Z,9412
2018-07-08T12:33:12.262Z,9320
2018-07-08T12:34:12.508Z,9216
2018-07-08T12:35:12.253Z,9172
2018-07-08T12:36:12.261Z,9124
2018-07-08T12:37:12.535Z,9004
2018-07-08T12:38:12.298Z,8752
2018-07-08T12:39:12.539Z,8408
2018-07-08T12:40:12.285Z,8668
2018-07-08T12:41:12.027Z,8544
2018-07-08T12:42:12.290Z,6576
2018-07-08T12:43:12.541Z,7128
2018-07-08T12:44:12.721Z,7000
2018-07-08T12:45:12.569Z,7016
2018-07-08T12:46:12.314Z,7316
2018-07-08T12:47:12.830Z,7712
2018-07-08T12:48:12.567Z,8512
2018-07-08T12:49:12.574Z,9528
2018-07-08T12:50:12.329Z,9828
2018-07-08T12:51:12.598Z,8100
2018-07-08T12:52:12.851Z,9896
2018-07-08T12:53:12.863Z,8356
2018-07-08T12:54:12.597Z,9900
2018-07-08T12:55:12.604Z,9748
2018-07-08T12:56:12.866Z,9572
2018-07-08T12:57:12.362Z,9360
2018-07-08T12:58:12.710Z,9180
2018-07-08T12:59:12.796Z,9020
2018-07-08T13:00:12.397Z,8136
2018-07-08T13:01:12.641Z,7456
2018-07-08T13:02:12.653Z,9152
2018-07-08T13:03:13.024Z,7688
2018-07-08T13:04:12.670Z,9484
2018-07-08T13:05:12.914Z,9176
2018-07-08T13:06:12.669Z,7440
2018-07-08T13:07:12.417Z,7336
2018-07-08T13:08:12.405Z,7620
2018-07-08T13:09:12.944Z,8308
2018-07-08T13:10:12.173Z,7916
2018-07-08T13:11:12.958Z,7660
2018-07-08T13:12:12.709Z,7432
2018-07-08T13:13:12.938Z,7368
2018-07-08T13:14:12.464Z,7372
2018-07-08T13:15:12.208Z,7368
2018-07-08T13:16:12.971Z,7384
2018-07-08T13:17:12.712Z,7340
2018-07-08T13:18:12.740Z,7300
2018-07-08T13:19:12.465Z,7268
2018-07-08T13:20:12.491Z,7240
2018-07-08T13:21:12.756Z,7240
2018-07-08T13:22:12.741Z,7208
2018-07-08T13:23:12.737Z,7188
2018-07-08T13:24:13.016Z,7160
2018-07-08T13:25:12.759Z,7056
2018-07-08T13:26:13.125Z,7008
2018-07-08T13:27:13.029Z,5756
2018-07-08T13:28:13.033Z,5752
2018-07-08T13:29:12.775Z,5768
2018-07-08T13:30:13.027Z,6408
2018-07-08T13:31:12.777Z,7424
2018-07-08T13:32:13.081Z,7400
2018-07-08T13:33:12.541Z,7348
2018-07-08T13:34:12.803Z,7432
2018-07-08T13:35:12.809Z,7432
2018-07-08T13:36:13.051Z,7372
2018-07-08T13:37:12.834Z,7288
2018-07-08T13:38:12.575Z,7360
2018-07-08T13:39:13.233Z,7320
2018-07-08T13:40:13.087Z,7116
2018-07-08T13:41:13.091Z,7020
2018-07-08T13:42:12.851Z,6960
2018-07-08T13:43:13.131Z,6892
2018-07-08T13:44:13.127Z,6916
2018-07-08T13:45:12.855Z,6896
2018-07-08T13:46:13.106Z,6864
2018-07-08T13:47:12.890Z,6920
2018-07-08T13:48:12.661Z,6928
2018-07-08T13:49:12.872Z,6992
2018-07-08T13:50:12.625Z,6632
2018-07-08T13:51:13.151Z,6516
2018-07-08T13:52:12.977Z,7160
2018-07-08T13:53:12.900Z,7112
2018-07-08T13:54:12.916Z,7008
2018-07-08T13:55:12.920Z,6944
2018-07-08T13:56:12.910Z,7024
2018-07-08T13:57:12.969Z,7076
2018-07-08T13:58:12.688Z,6992
2018-07-08T13:59:12.678Z,6856
2018-07-08T14:00:12.685Z,6692
2018-07-08T14:01:12.955Z,6576
2018-07-08T14:02:13.192Z,6488
2018-07-08T14:03:12.692Z,6444
2018-07-08T14:04:12.709Z,6388
2018-07-08T14:05:12.968Z,6068
2018-07-08T14:06:12.961Z,6336
2018-07-08T14:07:12.705Z,6028
2018-07-08T14:08:13.226Z,6268
2018-07-08T14:09:13.884Z,6312
2018-07-08T14:10:12.732Z,6276
2018-07-08T14:11:12.992Z,6208